Time;durP1;ratioP1;P1;durP2;ratioP2;P2;SDS_P1;SDS_P2;PMS_P1;PMS_P2;Temp;Humidity;BMP_temperature;BMP_pressure;BME280_temperature;BME280_humidity;BME280_pressure;Samples;Min_cycle;Max_cycle;Signal;HPM_P1;HPM_P2
2023/04/20 00:00:10;;;;;;;9.52;6.18;;;;;;;;;;4980211;28;20109;-58
2023/04/20 00:02:38;;;;;;;8.95;6.28;;;;;;;;;;4975717;28;20038;-55
2023/04/20 00:05:07;;;;;;;9.95;6.10;;;;;;;;;;4977194;28;20137;-53
2023/04/20 00:07:33;;;;;;;8.65;6.18;;;;;;;;;;4978415;28;20037;-54
2023/04/20 00:09:58;;;;;;;10.57;6.70;;;;;;;;;;4984620;28;20499;-56
2023/04/20 00:12:23;;;;;;;9.30;6.18;;;;;;;;;;4980969;28;20034;-56
2023/04/20 00:14:50;;;;;;;8.55;6.00;;;;;;;;;;4980401;28;20092;-58
2023/04/20 00:17:16;;;;;;;11.25;6.40;;;;;;;;;;4979597;28;20076;-52
2023/04/20 00:19:41;;;;;;;7.97;5.65;;;;;;;;;;4995351;28;21894;-54
2023/04/20 00:22:06;;;;;;;10.35;6.28;;;;;;;;;;4979035;28;20034;-55
2023/04/20 00:24:32;;;;;;;12.40;6.68;;;;;;;;;;4978827;28;20137;-55
2023/04/20 00:26:57;;;;;;;14.57;6.95;;;;;;;;;;4977671;28;20042;-56
2023/04/20 00:29:22;;;;;;;12.35;7.00;;;;;;;;;;4977580;28;20030;-55
2023/04/20 00:31:48;;;;;;;12.23;6.25;;;;;;;;;;4992975;28;20364;-55
2023/04/20 00:34:14;;;;;;;10.48;6.75;;;;;;;;;;4974955;28;20035;-58
2023/04/20 00:36:40;;;;;;;10.47;6.40;;;;;;;;;;4980393;28;20059;-52
2023/04/20 00:39:05;;;;;;;8.73;5.95;;;;;;;;;;4992964;28;20590;-54
2023/04/20 00:41:30;;;;;;;10.95;7.35;;;;;;;;;;4980307;28;20042;-53
2023/04/20 00:43:57;;;;;;;;;;;;;;;;;;4982903;28;20039;-56
2023/04/20 00:46:23;;;;;;;9.07;6.13;;;;;;;;;;4981243;28;19928;-56
2023/04/20 00:48:50;;;;;;;10.50;6.18;;;;;;;;;;4982529;28;20928;-55
2023/04/20 00:51:16;;;;;;;10.65;6.80;;;;;;;;;;4979341;28;20021;-55
2023/04/20 00:53:41;;;;;;;11.18;6.90;;;;;;;;;;4972403;28;20042;-56
2023/04/20 00:56:07;;;;;;;13.88;6.80;;;;;;;;;;4980622;28;20035;-58
2023/04/20 00:58:32;;;;;;;9.40;6.53;;;;;;;;;;4982606;28;20133;-55
2023/04/20 01:00:58;;;;;;;9.48;6.10;;;;;;;;;;4978714;28;20547;-56
2023/04/20 01:03:23;;;;;;;9.48;6.93;;;;;;;;;;4980578;28;20046;-56
2023/04/20 01:05:48;;;;;;;12.25;7.20;;;;;;;;;;4996056;23;20166;-52
2023/04/20 01:08:14;;;;;;;12.85;6.75;;;;;;;;;;4977897;28;20454;-52
2023/04/20 01:10:39;;;;;;;11.20;6.90;;;;;;;;;;4979921;28;20097;-51
2023/04/20 01:13:05;;;;;;;12.25;6.68;;;;;;;;;;4981473;28;20490;-53
2023/04/20 01:15:33;;;;;;;8.30;6.27;;;;;;;;;;4980701;28;20042;-55
2023/04/20 01:17:58;;;;;;;11.07;7.10;;;;;;;;;;4977780;28;20307;-54
2023/04/20 01:20:24;;;;;;;13.35;6.50;;;;;;;;;;4976753;28;20425;-50
2023/04/20 01:22:50;;;;;;;10.10;6.88;;;;;;;;;;4994055;28;20034;-52
2023/04/20 01:25:16;;;;;;;15.05;6.90;;;;;;;;;;4977474;28;20026;-53
2023/04/20 01:27:41;;;;;;;11.07;6.43;;;;;;;;;;4978514;28;20072;-54
2023/04/20 01:30:07;;;;;;;9.23;6.85;;;;;;;;;;4976677;28;20073;-54
2023/04/20 01:32:32;;;;;;;11.57;6.45;;;;;;;;;;4979623;28;20030;-53
2023/04/20 01:34:58;;;;;;;10.02;6.20;;;;;;;;;;4977421;28;20783;-53
2023/04/20 01:37:23;;;;;;;10.93;7.15;;;;;;;;;;4976618;28;20604;-52
2023/04/20 01:39:49;;;;;;;10.48;6.72;;;;;;;;;;4979053;28;20244;-53
2023/04/20 01:42:14;;;;;;;10.07;6.47;;;;;;;;;;4978494;28;20535;-52
2023/04/20 01:44:39;;;;;;;11.48;6.30;;;;;;;;;;4992184;28;20026;-52
2023/04/20 01:47:05;;;;;;;10.50;6.30;;;;;;;;;;4980270;28;20030;-59
2023/04/20 01:49:30;;;;;;;10.43;6.75;;;;;;;;;;4992812;28;20493;-53
2023/04/20 01:51:56;;;;;;;11.60;6.75;;;;;;;;;;4980685;28;20026;-57
2023/04/20 01:54:21;;;;;;;10.48;6.95;;;;;;;;;;4977997;28;20045;-54
2023/04/20 01:56:47;;;;;;;13.13;6.60;;;;;;;;;;4976249;28;20038;-53
2023/04/20 01:59:14;;;;;;;13.80;7.65;;;;;;;;;;4980464;28;20026;-54
2023/04/20 02:01:39;;;;;;;12.27;7.05;;;;;;;;;;4978296;28;20372;-54
2023/04/20 02:04:04;;;;;;;13.55;7.30;;;;;;;;;;4977668;28;20696;-49
2023/04/20 02:06:30;;;;;;;11.73;7.32;;;;;;;;;;4980118;28;20176;-54
2023/04/20 02:08:56;;;;;;;13.55;7.18;;;;;;;;;;4976057;28;20124;-52
2023/04/20 02:11:21;;;;;;;14.48;7.18;;;;;;;;;;4979072;28;20097;-51
2023/04/20 02:13:46;;;;;;;17.88;7.57;;;;;;;;;;4991908;28;20133;-56
2023/04/20 02:16:12;;;;;;;11.07;7.18;;;;;;;;;;4978508;28;20040;-50
2023/04/20 02:18:38;;;;;;;10.85;7.07;;;;;;;;;;4977018;28;20062;-53
2023/04/20 02:21:04;;;;;;;11.45;6.97;;;;;;;;;;4965364;28;20034;-56
2023/04/20 02:23:30;;;;;;;12.13;7.63;;;;;;;;;;4980895;28;20038;-52
2023/04/20 02:25:55;;;;;;;9.85;7.03;;;;;;;;;;4978417;28;20034;-50
2023/04/20 02:28:20;;;;;;;10.55;7.38;;;;;;;;;;4977875;28;20595;-53
2023/04/20 02:30:46;;;;;;;12.05;7.25;;;;;;;;;;4981324;28;20514;-52
2023/04/20 02:33:11;;;;;;;10.98;7.32;;;;;;;;;;4975224;28;20552;-57
2023/04/20 02:35:37;;;;;;;9.90;6.85;;;;;;;;;;4979743;28;20045;-52
2023/04/20 02:38:02;;;;;;;12.20;7.57;;;;;;;;;;4991780;28;20022;-52
2023/04/20 02:40:28;;;;;;;12.35;7.15;;;;;;;;;;4977195;28;20054;-55
2023/04/20 02:42:53;;;;;;;11.23;7.03;;;;;;;;;;4974840;28;20026;-54
2023/04/20 02:45:19;;;;;;;9.00;6.22;;;;;;;;;;4980833;28;20034;-50
2023/04/20 02:47:45;;;;;;;12.25;7.22;;;;;;;;;;4973793;28;20034;-51
2023/04/20 02:50:12;;;;;;;11.73;7.43;;;;;;;;;;4980400;28;20034;-54
2023/04/20 02:52:54;;;;;;;13.07;7.25;;;;;;;;;;4990017;28;20043;-55
2023/04/20 02:55:20;;;;;;;9.63;6.80;;;;;;;;;;4973886;28;20107;-54
2023/04/20 02:57:48;;;;;;;11.57;7.32;;;;;;;;;;4975177;28;20117;-51
2023/04/20 03:00:15;;;;;;;12.73;7.38;;;;;;;;;;4980464;28;21935;-48
2023/04/20 03:02:56;;;;;;;11.48;7.63;;;;;;;;;;4991862;28;20169;-53
2023/04/20 03:05:22;;;;;;;12.25;7.68;;;;;;;;;;4975528;28;20750;-54
2023/04/20 03:07:47;;;;;;;15.90;8.68;;;;;;;;;;4990094;28;20030;-55
2023/04/20 03:10:13;;;;;;;11.13;8.02;;;;;;;;;;4983251;28;20038;-54
2023/04/20 03:12:48;;;;;;;13.93;8.13;;;;;;;;;;4981456;28;20500;-52
2023/04/20 03:15:29;;;;;;;14.15;8.18;;;;;;;;;;4990840;28;20042;-50
2023/04/20 03:18:02;;;;;;;13.15;7.72;;;;;;;;;;4980250;28;20041;-52
2023/04/20 03:20:28;;;;;;;11.63;8.20;;;;;;;;;;4995270;28;20027;-53
2023/04/20 03:22:54;;;;;;;15.68;7.10;;;;;;;;;;4977932;28;20124;-56
2023/04/20 03:25:22;;;;;;;12.35;7.50;;;;;;;;;;4978487;28;20041;-53
2023/04/20 03:27:52;;;;;;;14.27;7.45;;;;;;;;;;4975244;28;20404;-54
2023/04/20 03:30:18;;;;;;;12.40;8.27;;;;;;;;;;4993061;28;20480;-54
2023/04/20 03:32:47;;;;;;;11.55;7.82;;;;;;;;;;4989955;28;20039;-52
2023/04/20 03:35:13;;;;;;;12.95;8.05;;;;;;;;;;4992309;28;20397;-53
2023/04/20 03:37:38;;;;;;;12.20;8.40;;;;;;;;;;4977196;28;20022;-53
2023/04/20 03:40:06;;;;;;;14.35;9.15;;;;;;;;;;4994650;28;20077;-52
2023/04/20 03:42:31;;;;;;;15.20;9.25;;;;;;;;;;4986020;28;20046;-55
2023/04/20 03:44:57;;;;;;;17.98;8.77;;;;;;;;;;4984885;28;20031;-53
2023/04/20 03:47:22;;;;;;;18.50;9.40;;;;;;;;;;4994573;28;20022;-51
2023/04/20 03:49:48;;;;;;;16.40;9.30;;;;;;;;;;4996988;28;20076;-54
2023/04/20 03:52:13;;;;;;;13.18;8.57;;;;;;;;;;4991557;28;20492;-55
2023/04/20 03:54:39;;;;;;;15.20;9.27;;;;;;;;;;4994088;28;20475;-55
2023/04/20 03:57:05;;;;;;;14.75;9.10;;;;;;;;;;4995048;28;20385;-53
2023/04/20 03:59:30;;;;;;;15.40;9.90;;;;;;;;;;4996966;28;20583;-53
2023/04/20 04:01:57;;;;;;;15.05;9.77;;;;;;;;;;4982469;28;20038;-53
2023/04/20 04:04:22;;;;;;;19.20;10.35;;;;;;;;;;4985501;28;20026;-54
2023/04/20 04:06:48;;;;;;;18.58;11.70;;;;;;;;;;4978034;28;20042;-49
2023/04/20 04:09:14;;;;;;;19.70;12.07;;;;;;;;;;4977902;28;20049;-52
2023/04/20 04:11:39;;;;;;;21.50;10.60;;;;;;;;;;4978112;28;20030;-51
2023/04/20 04:14:05;;;;;;;20.65;12.38;;;;;;;;;;4993876;28;20035;-51
2023/04/20 04:16:31;;;;;;;17.55;11.27;;;;;;;;;;4994576;28;20043;-49
2023/04/20 04:18:57;;;;;;;19.40;11.30;;;;;;;;;;4995768;28;20056;-54
2023/04/20 04:21:23;;;;;;;19.80;11.80;;;;;;;;;;4983216;28;20031;-55
2023/04/20 04:23:54;;;;;;;15.50;11.07;;;;;;;;;;4995211;28;20034;-51
2023/04/20 04:26:35;;;;;;;21.08;11.40;;;;;;;;;;4982946;28;20038;-53
2023/04/20 04:29:03;;;;;;;23.08;12.43;;;;;;;;;;4991545;28;20093;-50
2023/04/20 04:31:28;;;;;;;16.52;11.15;;;;;;;;;;4986541;28;20034;-53
2023/04/20 04:34:00;;;;;;;15.90;11.02;;;;;;;;;;4993375;28;20058;-54
2023/04/20 04:36:31;;;;;;;16.25;11.23;;;;;;;;;;4995473;28;20436;-51
2023/04/20 04:38:58;;;;;;;16.35;10.55;;;;;;;;;;4984737;28;20467;-55
2023/04/20 04:41:24;;;;;;;15.07;10.23;;;;;;;;;;4994033;28;20054;-51
2023/04/20 04:43:50;;;;;;;18.17;11.23;;;;;;;;;;4984641;28;20488;-53
2023/04/20 04:46:24;;;;;;;18.25;10.48;;;;;;;;;;4983918;28;20054;-51
2023/04/20 04:48:50;;;;;;;20.08;11.65;;;;;;;;;;4991023;28;20035;-51
2023/04/20 04:51:17;;;;;;;18.98;10.90;;;;;;;;;;4980381;28;20030;-51
2023/04/20 04:53:45;;;;;;;21.27;10.90;;;;;;;;;;4980528;28;20022;-54
2023/04/20 04:56:12;;;;;;;20.58;11.88;;;;;;;;;;4980408;28;20022;-53
2023/04/20 04:58:37;;;;;;;18.33;12.07;;;;;;;;;;4996013;28;20034;-53
2023/04/20 05:01:02;;;;;;;20.02;12.45;;;;;;;;;;4976610;28;20626;-51
2023/04/20 05:03:28;;;;;;;16.42;11.20;;;;;;;;;;4978245;28;20357;-50
2023/04/20 05:05:53;;;;;;;19.15;11.45;;;;;;;;;;4978167;28;20034;-55
2023/04/20 05:08:20;;;;;;;19.40;12.88;;;;;;;;;;4978686;28;20036;-54
2023/04/20 05:10:45;;;;;;;20.98;11.93;;;;;;;;;;4974861;28;20030;-50
2023/04/20 05:13:11;;;;;;;21.42;12.30;;;;;;;;;;4979470;28;20104;-53
2023/04/20 05:15:36;;;;;;;17.40;11.50;;;;;;;;;;4977273;28;20043;-51
2023/04/20 05:18:01;;;;;;;18.17;11.32;;;;;;;;;;4978562;28;20030;-57
2023/04/20 05:20:27;;;;;;;20.13;11.77;;;;;;;;;;4976654;28;20049;-51
2023/04/20 05:22:52;;;;;;;17.90;10.55;;;;;;;;;;4979247;28;20591;-51
2023/04/20 05:25:17;;;;;;;18.83;11.75;;;;;;;;;;4983402;28;20030;-54
2023/04/20 05:27:43;;;;;;;18.20;11.85;;;;;;;;;;4976038;28;20026;-52
2023/04/20 05:30:08;;;;;;;15.80;11.15;;;;;;;;;;4979324;28;20041;-55
2023/04/20 05:32:34;;;;;;;15.95;11.15;;;;;;;;;;4979970;28;20026;-55
2023/04/20 05:34:59;;;;;;;16.75;11.05;;;;;;;;;;4981280;28;20049;-54
2023/04/20 05:37:26;;;;;;;17.80;11.20;;;;;;;;;;4977472;28;20022;-52
2023/04/20 05:39:51;;;;;;;17.08;10.75;;;;;;;;;;4982671;28;20114;-53
2023/04/20 05:42:17;;;;;;;18.98;11.35;;;;;;;;;;4978648;28;20729;-53
2023/04/20 05:44:42;;;;;;;16.83;10.98;;;;;;;;;;4977897;28;20078;-54
2023/04/20 05:47:08;;;;;;;17.95;10.82;;;;;;;;;;4993102;28;20038;-53
2023/04/20 05:49:36;;;;;;;15.90;10.43;;;;;;;;;;4978302;28;20030;-56
2023/04/20 05:52:02;;;;;;;15.93;11.07;;;;;;;;;;4980338;28;20403;-54
2023/04/20 05:54:27;;;;;;;15.57;10.20;;;;;;;;;;4976410;28;20484;-54
2023/04/20 05:56:53;;;;;;;15.30;10.25;;;;;;;;;;4980364;28;20018;-53
2023/04/20 05:59:19;;;;;;;19.40;10.48;;;;;;;;;;4979577;28;20027;-52
2023/04/20 06:01:44;;;;;;;15.40;10.45;;;;;;;;;;4976665;28;20033;-50
2023/04/20 06:04:09;;;;;;;13.30;9.18;;;;;;;;;;4980242;28;20038;-52
2023/04/20 06:06:35;;;;;;;18.13;11.20;;;;;;;;;;4980670;28;20382;-54
2023/04/20 06:09:00;;;;;;;17.83;11.65;;;;;;;;;;4978453;28;20065;-58
2023/04/20 06:11:25;;;;;;;15.73;9.85;;;;;;;;;;4979477;28;20033;-54
2023/04/20 06:13:51;;;;;;;16.05;10.20;;;;;;;;;;4995815;28;20046;-57
2023/04/20 06:16:16;;;;;;;13.40;9.18;;;;;;;;;;4981220;28;20061;-55
2023/04/20 06:18:41;;;;;;;15.52;9.57;;;;;;;;;;4981620;28;20676;-52
2023/04/20 06:21:10;;;;;;;13.82;8.93;;;;;;;;;;4993850;28;20035;-56
2023/04/20 06:23:36;;;;;;;14.85;9.43;;;;;;;;;;4977769;28;20033;-56
2023/04/20 06:26:02;;;;;;;16.65;9.90;;;;;;;;;;4978544;28;20038;-53
2023/04/20 06:28:27;;;;;;;15.52;9.63;;;;;;;;;;4979802;28;20053;-54
2023/04/20 06:30:52;;;;;;;13.02;9.23;;;;;;;;;;4978477;28;20384;-54
2023/04/20 06:33:18;;;;;;;14.02;9.18;;;;;;;;;;4980112;28;20511;-50
2023/04/20 06:35:43;;;;;;;14.68;9.40;;;;;;;;;;4966492;28;20081;-52
2023/04/20 06:38:08;;;;;;;13.70;8.70;;;;;;;;;;4982646;28;20555;-57
2023/04/20 06:40:34;;;;;;;12.50;8.93;;;;;;;;;;4983719;28;20037;-54
2023/04/20 06:42:59;;;;;;;15.52;9.23;;;;;;;;;;4976039;28;20076;-55
2023/04/20 06:45:25;;;;;;;14.43;8.93;;;;;;;;;;4981179;28;20240;-54
2023/04/20 06:47:50;;;;;;;14.82;8.70;;;;;;;;;;4977094;28;20376;-55
2023/04/20 06:50:15;;;;;;;16.70;8.60;;;;;;;;;;4974798;28;20387;-52
2023/04/20 06:52:41;;;;;;;12.43;8.82;;;;;;;;;;4978357;28;20022;-54
2023/04/20 06:55:06;;;;;;;12.70;8.80;;;;;;;;;;4981829;28;20043;-50
2023/04/20 06:57:32;;;;;;;13.13;9.27;;;;;;;;;;4977773;28;20026;-54
2023/04/20 07:00:00;;;;;;;11.60;8.52;;;;;;;;;;4979676;28;20084;-53
2023/04/20 07:02:26;;;;;;;13.25;9.02;;;;;;;;;;4981764;28;20027;-52
2023/04/20 07:04:51;;;;;;;12.52;8.02;;;;;;;;;;4994206;28;20026;-54
2023/04/20 07:07:16;;;;;;;12.93;7.95;;;;;;;;;;4979519;28;20041;-53
2023/04/20 07:09:42;;;;;;;11.32;7.50;;;;;;;;;;4976764;28;20034;-55
2023/04/20 07:12:07;;;;;;;12.27;8.18;;;;;;;;;;4975490;28;20027;-55
2023/04/20 07:14:32;;;;;;;13.45;8.68;;;;;;;;;;4978386;28;20543;-54
2023/04/20 07:16:58;;;;;;;12.65;8.85;;;;;;;;;;4977640;28;20054;-51
2023/04/20 07:19:23;;;;;;;14.43;8.73;;;;;;;;;;4990241;28;20066;-52
2023/04/20 07:21:48;;;;;;;13.52;8.68;;;;;;;;;;4978674;28;20046;-55
2023/04/20 07:24:14;;;;;;;11.45;7.85;;;;;;;;;;4978544;28;20026;-52
2023/04/20 07:26:39;;;;;;;14.38;8.30;;;;;;;;;;4984292;28;20022;-57
2023/04/20 07:29:04;;;;;;;11.30;8.07;;;;;;;;;;4976938;28;20126;-54
2023/04/20 07:31:30;;;;;;;12.20;8.13;;;;;;;;;;4977507;28;20035;-57
2023/04/20 07:33:55;;;;;;;12.82;7.75;;;;;;;;;;4991615;28;20034;-54
2023/04/20 07:36:21;;;;;;;13.25;8.30;;;;;;;;;;4978248;28;20764;-55
2023/04/20 07:38:47;;;;;;;11.55;8.20;;;;;;;;;;4977134;28;20034;-55
2023/04/20 07:41:12;;;;;;;16.17;8.48;;;;;;;;;;4974183;28;20092;-51
2023/04/20 07:43:38;;;;;;;12.85;8.27;;;;;;;;;;4976174;28;20066;-54
2023/04/20 07:46:03;;;;;;;12.82;7.47;;;;;;;;;;4975609;28;20379;-57
2023/04/20 07:48:29;;;;;;;14.30;8.15;;;;;;;;;;4992420;28;20439;-55
2023/04/20 07:50:54;;;;;;;10.48;7.47;;;;;;;;;;4979285;28;20129;-55
2023/04/20 07:53:19;;;;;;;10.95;7.40;;;;;;;;;;4976269;28;20066;-54
2023/04/20 07:55:45;;;;;;;12.07;7.60;;;;;;;;;;4974863;28;20030;-56
2023/04/20 07:58:11;;;;;;;13.27;7.45;;;;;;;;;;4979625;28;20049;-56
2023/04/20 08:00:36;;;;;;;13.38;7.93;;;;;;;;;;4976730;28;20054;-54
2023/04/20 08:03:02;;;;;;;19.67;9.05;;;;;;;;;;4981531;28;20081;-51
2023/04/20 08:05:27;;;;;;;13.15;8.15;;;;;;;;;;4976828;28;20463;-52
2023/04/20 08:07:52;;;;;;;13.90;8.20;;;;;;;;;;4979155;28;20054;-58
2023/04/20 08:10:18;;;;;;;14.52;7.43;;;;;;;;;;4975981;28;20101;-52
2023/04/20 08:12:43;;;;;;;14.60;8.30;;;;;;;;;;4977358;28;20045;-52
2023/04/20 08:15:09;;;;;;;13.73;7.93;;;;;;;;;;4976967;28;20038;-56
2023/04/20 08:17:34;;;;;;;11.23;7.80;;;;;;;;;;4975398;28;20034;-54
2023/04/20 08:20:00;;;;;;;9.85;6.93;;;;;;;;;;4977868;28;20460;-57
2023/04/20 08:22:28;;;;;;;13.57;7.43;;;;;;;;;;4978032;28;20039;-54
2023/04/20 08:24:54;;;;;;;9.77;6.88;;;;;;;;;;4979013;28;20902;-51
2023/04/20 08:27:20;;;;;;;11.95;7.45;;;;;;;;;;4977208;28;20058;-57
2023/04/20 08:29:45;;;;;;;11.13;7.55;;;;;;;;;;4978190;28;20456;-53
2023/04/20 08:32:11;;;;;;;8.05;6.47;;;;;;;;;;4980829;28;20076;-51
2023/04/20 08:34:37;;;;;;;12.52;7.15;;;;;;;;;;4979877;28;20039;-51
2023/04/20 08:37:02;;;;;;;10.30;6.80;;;;;;;;;;4982140;28;20033;-56
2023/04/20 08:39:29;;;;;;;11.98;7.20;;;;;;;;;;4977944;28;20034;-53
2023/04/20 08:41:55;;;;;;;10.63;7.15;;;;;;;;;;4992587;28;20061;-54
2023/04/20 08:44:21;;;;;;;9.65;6.95;;;;;;;;;;4985226;28;21014;-51
2023/04/20 08:46:47;;;;;;;10.20;7.65;;;;;;;;;;4995442;28;20538;-50
2023/04/20 08:49:13;;;;;;;9.80;7.03;;;;;;;;;;4979679;28;20457;-54
2023/04/20 08:51:39;;;;;;;13.15;7.50;;;;;;;;;;4981485;28;20038;-48
2023/04/20 08:54:04;;;;;;;9.68;6.88;;;;;;;;;;4981946;28;20042;-54
2023/04/20 08:56:37;;;;;;;11.00;8.10;;;;;;;;;;4978381;28;20111;-53
2023/04/20 08:59:04;;;;;;;10.40;7.25;;;;;;;;;;4980697;28;20085;-57
2023/04/20 09:01:29;;;;;;;10.18;7.40;;;;;;;;;;4981950;28;20098;-50
2023/04/20 09:03:55;;;;;;;11.18;7.97;;;;;;;;;;4979431;28;20038;-50
2023/04/20 09:06:21;;;;;;;11.05;7.43;;;;;;;;;;4984355;28;20410;-51
2023/04/20 09:08:47;;;;;;;16.33;7.87;;;;;;;;;;4978475;28;20027;-55
2023/04/20 09:11:39;;;;;;;13.90;7.18;;;;;;;;;;4978909;28;20274;-51
2023/04/20 09:14:09;;;;;;;10.88;7.53;;;;;;;;;;4981271;28;20469;-53
2023/04/20 09:16:46;;;;;;;13.05;7.88;;;;;;;;;;4976795;28;20081;-51
2023/04/20 09:19:12;;;;;;;11.25;7.65;;;;;;;;;;4984297;28;20031;-56
2023/04/20 09:21:47;;;;;;;10.75;7.13;;;;;;;;;;4977729;28;20052;-53
2023/04/20 09:24:15;;;;;;;11.82;7.30;;;;;;;;;;4979825;28;20054;-54
2023/04/20 09:26:40;;;;;;;11.15;7.45;;;;;;;;;;4981844;28;20487;-54
2023/04/20 09:29:15;;;;;;;10.52;7.30;;;;;;;;;;4996473;28;20035;-53
2023/04/20 09:31:40;;;;;;;10.27;7.40;;;;;;;;;;4995778;28;20485;-53
2023/04/20 09:34:05;;;;;;;13.68;7.25;;;;;;;;;;4979240;28;20054;-54
2023/04/20 09:36:38;;;;;;;11.27;7.00;;;;;;;;;;4979421;28;20031;-56
2023/04/20 09:39:06;;;;;;;12.40;7.00;;;;;;;;;;4980871;28;20022;-57
2023/04/20 09:41:32;;;;;;;9.43;6.35;;;;;;;;;;4981586;28;20792;-54
2023/04/20 09:43:58;;;;;;;10.18;7.20;;;;;;;;;;4996406;28;20035;-51
2023/04/20 09:46:24;;;;;;;11.35;6.47;;;;;;;;;;4980330;28;20034;-55
2023/04/20 09:48:49;;;;;;;9.05;6.28;;;;;;;;;;4978890;28;20034;-55
2023/04/20 09:51:15;;;;;;;7.85;5.85;;;;;;;;;;4979584;28;20083;-55
2023/04/20 09:53:40;;;;;;;10.93;6.43;;;;;;;;;;4981941;28;20022;-54
2023/04/20 09:56:06;;;;;;;9.82;6.57;;;;;;;;;;4982847;28;20034;-51
2023/04/20 09:58:31;;;;;;;9.75;6.32;;;;;;;;;;4996680;28;20077;-52
2023/04/20 10:00:57;;;;;;;9.32;6.65;;;;;;;;;;4979266;28;20042;-57
2023/04/20 10:03:22;;;;;;;9.98;7.07;;;;;;;;;;4979948;28;20348;-51
2023/04/20 10:05:47;;;;;;;14.38;7.43;;;;;;;;;;4979585;28;20842;-51
2023/04/20 10:08:13;;;;;;;10.25;7.28;;;;;;;;;;4978553;28;20023;-55
2023/04/20 10:10:42;;;;;;;10.98;7.00;;;;;;;;;;4978381;28;20037;-54
2023/04/20 10:13:07;;;;;;;10.38;7.40;;;;;;;;;;4983604;28;20022;-55
2023/04/20 10:15:36;;;;;;;10.45;6.90;;;;;;;;;;4981463;28;20023;-52
2023/04/20 10:18:13;;;;;;;10.05;7.05;;;;;;;;;;4978266;28;20062;-55
2023/04/20 10:20:38;;;;;;;11.53;6.87;;;;;;;;;;4979298;28;20050;-52
2023/04/20 10:23:06;;;;;;;11.65;7.68;;;;;;;;;;4978513;28;20052;-54
2023/04/20 10:25:31;;;;;;;10.52;7.18;;;;;;;;;;4976358;28;20714;-55
2023/04/20 10:27:58;;;;;;;9.40;6.30;;;;;;;;;;4981482;28;20496;-51
2023/04/20 10:30:24;;;;;;;9.80;6.45;;;;;;;;;;4979428;28;20110;-56
2023/04/20 10:33:00;;;;;;;9.02;6.57;;;;;;;;;;4979516;28;20039;-54
2023/04/20 10:35:25;;;;;;;10.43;6.82;;;;;;;;;;4995198;28;20079;-57
2023/04/20 10:37:51;;;;;;;9.65;6.93;;;;;;;;;;4977286;28;20023;-54
2023/04/20 10:40:23;;;;;;;13.25;7.82;;;;;;;;;;4979687;28;20957;-51
2023/04/20 10:42:48;;;;;;;14.18;7.13;;;;;;;;;;4977492;28;20094;-54
2023/04/20 10:45:14;;;;;;;9.45;6.47;;;;;;;;;;4978153;28;20030;-53
2023/04/20 10:47:39;;;;;;;13.13;7.25;;;;;;;;;;4979664;28;20030;-53
2023/04/20 10:50:08;;;;;;;12.43;7.15;;;;;;;;;;4977685;28;20018;-57
2023/04/20 10:52:35;;;;;;;9.18;6.68;;;;;;;;;;4979414;28;20104;-55
2023/04/20 10:55:01;;;;;;;10.32;6.50;;;;;;;;;;4993441;28;20035;-54
2023/04/20 10:57:26;;;;;;;9.68;6.65;;;;;;;;;;4978885;28;20033;-51
2023/04/20 10:59:51;;;;;;;11.18;6.70;;;;;;;;;;4984384;28;20034;-51
2023/04/20 11:02:17;;;;;;;10.88;6.70;;;;;;;;;;4981434;28;20022;-51
2023/04/20 11:04:42;;;;;;;9.98;6.35;;;;;;;;;;4978696;28;20030;-54
2023/04/20 11:07:08;;;;;;;10.73;6.13;;;;;;;;;;4979347;28;20031;-53
2023/04/20 11:09:34;;;;;;;10.88;5.88;;;;;;;;;;4979513;28;20037;-57
2023/04/20 11:12:00;;;;;;;10.32;5.90;;;;;;;;;;4961178;28;20047;-56
2023/04/20 11:14:26;;;;;;;11.37;6.17;;;;;;;;;;4957987;28;20034;-52
2023/04/20 11:16:52;;;;;;;7.97;5.90;;;;;;;;;;4958574;28;20106;-55
2023/04/20 11:19:28;;;;;;;9.60;5.97;;;;;;;;;;4959104;28;20038;-55
2023/04/20 11:21:53;;;;;;;9.88;6.40;;;;;;;;;;4973985;28;20542;-53
2023/04/20 11:24:40;;;;;;;10.10;6.35;;;;;;;;;;4960242;28;20031;-55
2023/04/20 11:27:05;;;;;;;8.25;5.70;;;;;;;;;;4961150;28;20465;-56
2023/04/20 11:29:35;;;;;;;8.88;5.72;;;;;;;;;;4959746;28;20024;-49
2023/04/20 11:32:02;;;;;;;8.75;5.82;;;;;;;;;;4959069;28;20030;-53
2023/04/20 11:34:28;;;;;;;10.77;6.03;;;;;;;;;;4961623;28;20034;-51
2023/04/20 11:36:55;;;;;;;9.50;5.60;;;;;;;;;;4958458;28;20054;-51
2023/04/20 11:39:24;;;;;;;9.65;5.93;;;;;;;;;;4970985;28;20043;-57
2023/04/20 11:41:51;;;;;;;8.43;5.95;;;;;;;;;;4957151;28;20027;-57
2023/04/20 11:44:19;;;;;;;11.75;6.47;;;;;;;;;;4958012;28;20034;-52
2023/04/20 11:46:44;;;;;;;8.32;5.30;;;;;;;;;;4963522;28;20046;-55
2023/04/20 11:49:10;;;;;;;8.27;5.47;;;;;;;;;;4957131;28;20039;-57
2023/04/20 11:51:35;;;;;;;8.65;5.65;;;;;;;;;;4958666;28;20788;-54
2023/04/20 11:54:01;;;;;;;9.02;5.85;;;;;;;;;;4958974;28;20542;-55
2023/04/20 11:56:26;;;;;;;8.43;5.78;;;;;;;;;;4960351;28;20034;-54
2023/04/20 11:58:51;;;;;;;10.85;6.43;;;;;;;;;;4961348;28;20033;-54
2023/04/20 12:01:17;;;;;;;9.75;6.20;;;;;;;;;;4962413;28;20033;-50
2023/04/20 12:03:42;;;;;;;10.05;6.20;;;;;;;;;;4960657;28;20081;-53
2023/04/20 12:06:08;;;;;;;9.93;5.95;;;;;;;;;;4962396;28;20041;-55
2023/04/20 12:08:33;;;;;;;9.52;6.45;;;;;;;;;;4967269;28;20098;-57
2023/04/20 12:10:58;;;;;;;11.75;7.10;;;;;;;;;;4962108;28;20106;-54
2023/04/20 12:13:24;;;;;;;11.05;6.68;;;;;;;;;;4962010;28;20027;-54
2023/04/20 12:15:49;;;;;;;11.68;5.95;;;;;;;;;;4962903;28;20062;-57
2023/04/20 12:18:15;;;;;;;10.80;6.43;;;;;;;;;;4959279;28;20413;-56
2023/04/20 12:20:41;;;;;;;10.07;6.20;;;;;;;;;;4961263;28;20030;-52
2023/04/20 12:23:06;;;;;;;8.93;5.93;;;;;;;;;;4976109;28;20031;-52
2023/04/20 12:25:31;;;;;;;11.73;5.78;;;;;;;;;;4961180;28;20156;-51
2023/04/20 12:27:57;;;;;;;10.60;6.03;;;;;;;;;;4963224;28;20085;-53
2023/04/20 12:30:22;;;;;;;9.35;5.97;;;;;;;;;;4964118;28;20038;-52
2023/04/20 12:32:47;;;;;;;10.68;6.30;;;;;;;;;;4960070;28;20046;-48
2023/04/20 12:35:13;;;;;;;8.65;6.00;;;;;;;;;;4962281;28;20066;-54
2023/04/20 12:37:38;;;;;;;9.32;5.70;;;;;;;;;;4962696;28;20484;-53
2023/04/20 12:40:05;;;;;;;9.40;6.00;;;;;;;;;;4961300;28;20570;-56
2023/04/20 12:42:30;;;;;;;14.20;6.30;;;;;;;;;;4962750;28;20035;-58
2023/04/20 12:44:55;;;;;;;11.57;6.10;;;;;;;;;;4967721;28;20046;-54
2023/04/20 12:47:21;;;;;;;8.68;5.80;;;;;;;;;;4962378;28;20043;-53
2023/04/20 12:49:46;;;;;;;9.93;6.28;;;;;;;;;;4959568;28;20039;-56
2023/04/20 12:52:11;;;;;;;11.43;6.22;;;;;;;;;;4960671;28;20027;-56
2023/04/20 12:54:37;;;;;;;8.93;6.00;;;;;;;;;;4951039;28;20061;-55
2023/04/20 12:57:02;;;;;;;13.25;7.15;;;;;;;;;;4962249;28;20027;-56
2023/04/20 12:59:28;;;;;;;9.75;7.18;;;;;;;;;;4965161;28;20350;-52
2023/04/20 13:01:53;;;;;;;9.27;6.50;;;;;;;;;;4960782;28;20031;-54
2023/04/20 13:04:18;;;;;;;11.40;7.95;;;;;;;;;;4961391;28;20031;-53
2023/04/20 13:06:44;;;;;;;10.18;6.57;;;;;;;;;;4961847;28;20038;-49
2023/04/20 13:09:09;;;;;;;11.25;6.70;;;;;;;;;;4973519;28;20128;-55
2023/04/20 13:11:34;;;;;;;12.20;6.75;;;;;;;;;;4959833;28;20030;-52
2023/04/20 13:14:00;;;;;;;10.40;6.93;;;;;;;;;;4962886;28;20034;-55
2023/04/20 13:16:25;;;;;;;10.80;6.80;;;;;;;;;;4960777;28;20058;-54
2023/04/20 13:18:51;;;;;;;10.73;6.18;;;;;;;;;;4963148;28;20027;-55
2023/04/20 13:21:16;;;;;;;10.55;6.93;;;;;;;;;;4976902;28;20065;-55
2023/04/20 13:23:41;;;;;;;13.00;7.60;;;;;;;;;;4974524;28;20031;-55
2023/04/20 13:26:07;;;;;;;13.65;8.57;;;;;;;;;;4960719;28;20035;-54
2023/04/20 13:28:32;;;;;;;10.70;7.10;;;;;;;;;;4959397;28;20660;-55
2023/04/20 13:30:58;;;;;;;11.48;6.45;;;;;;;;;;4959206;28;20035;-53
2023/04/20 13:33:23;;;;;;;11.50;7.53;;;;;;;;;;4960042;28;20034;-55
2023/04/20 13:35:49;;;;;;;10.85;7.38;;;;;;;;;;4960853;28;20066;-51
2023/04/20 13:38:14;;;;;;;19.20;10.75;;;;;;;;;;4960127;28;20026;-53
2023/04/20 13:40:41;;;;;;;10.88;6.72;;;;;;;;;;4966311;28;20046;-53
2023/04/20 13:43:06;;;;;;;13.23;6.63;;;;;;;;;;4964788;28;20035;-49
2023/04/20 13:45:31;;;;;;;10.55;7.07;;;;;;;;;;4961803;28;20100;-55
2023/04/20 13:47:56;;;;;;;10.38;6.68;;;;;;;;;;4962841;28;20034;-52
2023/04/20 13:50:22;;;;;;;10.10;6.88;;;;;;;;;;4965771;28;20685;-53
2023/04/20 13:52:48;;;;;;;9.95;6.65;;;;;;;;;;4960932;28;20496;-55
2023/04/20 13:55:13;;;;;;;15.15;6.97;;;;;;;;;;4961767;28;20030;-54
2023/04/20 13:57:38;;;;;;;11.02;7.20;;;;;;;;;;4959582;28;20027;-54
2023/04/20 14:00:04;;;;;;;10.65;6.82;;;;;;;;;;4958358;28;20041;-57
2023/04/20 14:02:31;;;;;;;9.05;6.55;;;;;;;;;;4961578;28;20441;-55
2023/04/20 14:04:56;;;;;;;9.07;6.13;;;;;;;;;;4960197;28;20023;-52
2023/04/20 14:07:22;;;;;;;10.07;6.65;;;;;;;;;;4962125;28;20039;-54
2023/04/20 14:09:47;;;;;;;10.60;6.95;;;;;;;;;;4956846;28;20042;-58
2023/04/20 14:12:13;;;;;;;9.98;6.85;;;;;;;;;;4960488;28;20456;-55
2023/04/20 14:14:39;;;;;;;10.73;6.32;;;;;;;;;;4959003;28;20509;-55
2023/04/20 14:17:05;;;;;;;10.97;7.23;;;;;;;;;;4964171;28;20145;-58
2023/04/20 14:19:31;;;;;;;10.05;6.93;;;;;;;;;;4974229;28;20793;-53
2023/04/20 14:21:56;;;;;;;10.52;6.63;;;;;;;;;;4957596;28;20034;-54
2023/04/20 14:24:22;;;;;;;9.50;6.43;;;;;;;;;;4960781;28;20030;-56